Time;durP1;ratioP1;P1;durP2;ratioP2;P2;SDS_P1;SDS_P2;PMS_P1;PMS_P2;Temp;Humidity;BMP_temperature;BMP_pressure;BME280_temperature;BME280_humidity;BME280_pressure;Samples;Min_cycle;Max_cycle;Signal;HPM_P1;HPM_P2
2022/03/30 00:00:39;;;;;;;9.15;4.82;;;;;;;-1.54;62.67;98478.56;5052919;28;20057;-76
2022/03/30 00:03:06;;;;;;;7.30;4.13;;;;;;;-1.61;62.70;98461.28;5053206;28;20057;-76
2022/03/30 00:05:34;;;;;;;7.97;4.13;;;;;;;-1.52;63.02;98496.53;5052837;28;20514;-77
2022/03/30 00:08:01;;;;;;;8.00;4.05;;;;;;;-1.49;62.59;98483.81;5053313;28;20079;-76
2022/03/30 00:10:28;;;;;;;6.85;3.88;;;;;;;-1.50;62.60;98492.34;5056481;28;20079;-76
2022/03/30 00:12:56;;;;;;;7.25;3.90;;;;;;;-1.51;62.87;98481.19;5060683;28;20087;-76
2022/03/30 00:15:24;;;;;;;5.82;3.53;;;;;;;-1.47;62.45;98485.59;5053320;28;20064;-77
2022/03/30 00:17:51;;;;;;;6.60;4.30;;;;;;;-1.50;62.48;98488.06;5053845;28;20091;-77
2022/03/30 00:20:19;;;;;;;6.65;3.97;;;;;;;-1.48;62.29;98475.31;5055557;28;20084;-77
2022/03/30 00:22:47;;;;;;;6.75;3.55;;;;;;;-1.36;62.58;98496.16;5038742;28;20064;-77
2022/03/30 00:25:14;;;;;;;5.82;3.53;;;;;;;-1.36;61.77;98479.91;5067249;28;20041;-76
2022/03/30 00:27:43;;;;;;;5.35;3.53;;;;;;;-1.42;62.16;98472.91;5078209;28;20069;-76
2022/03/30 00:30:11;;;;;;;5.40;3.92;;;;;;;-1.45;61.98;98476.25;5062557;28;20542;-76
2022/03/30 00:32:38;;;;;;;7.75;3.97;;;;;;;-1.37;61.83;98493.56;5053347;28;20056;-77
2022/03/30 00:35:07;;;;;;;6.10;3.85;;;;;;;-1.61;62.22;98465.53;5052973;28;20106;-78
2022/03/30 00:37:35;;;;;;;5.78;3.67;;;;;;;-1.57;61.99;98491.28;5035184;28;20057;-78
2022/03/30 00:40:08;;;;;;;7.05;3.50;;;;;;;-1.68;62.11;98484.97;5052990;28;20087;-76
2022/03/30 00:42:35;;;;;;;8.75;4.10;;;;;;;-2.03;62.58;98440.38;5052979;28;20059;-76
2022/03/30 00:45:14;;;;;;;7.30;3.60;;;;;;;-1.70;62.72;98501.97;5052947;28;20502;-77
2022/03/30 00:47:41;;;;;;;6.22;4.00;;;;;;;-1.97;63.08;98464.47;5053125;28;20072;-76
2022/03/30 00:50:10;;;;;;;6.88;3.65;;;;;;;-1.78;62.97;98508.56;5055746;28;20167;-76
2022/03/30 00:52:37;;;;;;;7.60;3.67;;;;;;;-1.80;62.86;98528.13;5055380;28;20099;-77
2022/03/30 00:55:06;;;;;;;6.82;3.70;;;;;;;-1.84;62.75;98516.06;5054548;28;20102;-77
2022/03/30 00:57:35;;;;;;;8.45;3.92;;;;;;;-1.89;62.91;98514.22;5054693;28;20103;-77
2022/03/30 01:00:05;;;;;;;5.95;3.90;;;;;;;-1.84;62.70;98503.25;5052911;28;20144;-77
2022/03/30 01:02:32;;;;;;;6.55;4.03;;;;;;;-1.71;62.23;98513.91;5053093;28;20573;-76
2022/03/30 01:05:00;;;;;;;7.68;3.95;;;;;;;-1.75;62.65;98500.97;5052864;28;20052;-76
2022/03/30 01:07:28;;;;;;;7.00;3.95;;;;;;;-1.77;62.81;98521.41;5052379;28;20060;-77
2022/03/30 01:09:55;;;;;;;5.75;3.83;;;;;;;-2.15;62.92;98467.34;5055687;28;20056;-76
2022/03/30 01:12:23;;;;;;;7.05;4.10;;;;;;;-1.83;63.23;98526.31;5056829;28;20052;-76
2022/03/30 01:14:50;;;;;;;7.30;4.10;;;;;;;-1.82;62.80;98524.66;5056385;28;20057;-76
2022/03/30 01:17:17;;;;;;;10.20;3.83;;;;;;;-1.82;63.33;98527.22;5056127;28;20056;-77
2022/03/30 01:19:44;;;;;;;8.98;4.60;;;;;;;-1.79;63.17;98529.84;5055875;28;20106;-77
2022/03/30 01:22:11;;;;;;;6.25;4.15;;;;;;;-1.91;63.09;98513.31;5056028;28;20096;-77
2022/03/30 01:24:38;;;;;;;5.20;3.90;;;;;;;-1.87;62.76;98529.63;5055564;28;20489;-77
2022/03/30 01:27:05;;;;;;;6.53;3.95;;;;;;;-1.90;63.17;98526.97;5038631;28;20506;-78
2022/03/30 01:32:27;;;;;;;7.47;4.45;;;;;;;-1.97;62.85;98505.44;5056061;28;20053;-76
2022/03/30 01:35:00;;;;;;;7.38;4.32;;;;;;;-1.84;63.16;98523.75;5056636;28;20143;-76
2022/03/30 01:37:31;;;;;;;5.85;4.30;;;;;;;-1.82;63.62;98525.50;5056103;28;20453;-76
2022/03/30 01:40:00;;;;;;;9.52;4.68;;;;;;;-1.80;63.33;98535.81;5056300;28;20053;-76
2022/03/30 01:42:29;;;;;;;6.60;4.13;;;;;;;-1.93;63.32;98532.00;5056003;28;20052;-76
2022/03/30 01:44:56;;;;;;;9.15;4.50;;;;;;;-1.87;63.74;98539.88;5055670;28;20057;-76
2022/03/30 01:47:23;;;;;;;10.10;4.80;;;;;;;-1.86;63.41;98534.78;5037842;28;20080;-76
2022/03/30 01:49:50;;;;;;;6.47;4.55;;;;;;;-1.76;63.36;98532.53;5055751;28;20152;-78
2022/03/30 01:52:18;;;;;;;10.27;4.97;;;;;;;-1.79;63.49;98522.19;5055718;28;20059;-77
2022/03/30 01:54:45;;;;;;;9.07;5.05;;;;;;;-1.77;63.42;98530.78;5055115;28;20425;-77
2022/03/30 01:57:12;;;;;;;9.40;5.50;;;;;;;-1.81;63.38;98516.13;5038191;28;20419;-76
2022/03/30 01:59:41;;;;;;;10.65;5.70;;;;;;;-1.72;63.00;98545.47;5056946;28;20057;-76
2022/03/30 02:02:09;;;;;;;8.43;4.85;;;;;;;-1.77;63.73;98549.56;5056838;28;20561;-77
2022/03/30 02:04:36;;;;;;;8.68;5.38;;;;;;;-1.75;63.44;98549.63;5055228;28;20502;-76
2022/03/30 02:07:05;;;;;;;10.10;5.15;;;;;;;-1.70;63.43;98548.94;5055241;28;20045;-76
2022/03/30 02:09:32;;;;;;;10.07;5.40;;;;;;;-1.71;63.41;98541.22;5054981;28;20507;-77
2022/03/30 02:11:59;;;;;;;8.35;5.50;;;;;;;-1.62;63.56;98556.84;5037793;28;20057;-79
2022/03/30 02:14:27;;;;;;;9.60;5.30;;;;;;;-1.54;63.24;98563.09;5055412;28;20068;-77
2022/03/30 02:16:54;;;;;;;9.68;4.85;;;;;;;-1.56;63.33;98563.88;5055113;28;20049;-77
2022/03/30 02:19:21;;;;;;;10.23;6.18;;;;;;;-1.56;63.86;98566.41;5054777;28;20061;-76
2022/03/30 02:21:48;;;;;;;10.38;5.28;;;;;;;-1.59;63.55;98543.25;5053930;28;20086;-77
2022/03/30 02:24:16;;;;;;;9.60;5.53;;;;;;;-1.52;63.96;98548.63;5055246;28;20079;-78
2022/03/30 02:26:43;;;;;;;7.88;5.10;;;;;;;-1.71;63.21;98521.59;5055175;28;20052;-77
2022/03/30 02:29:10;;;;;;;9.57;5.20;;;;;;;-1.56;63.77;98576.66;5055287;28;20087;-76
2022/03/30 02:31:36;;;;;;;9.48;5.60;;;;;;;-1.84;64.17;98523.75;5054689;28;20052;-77
2022/03/30 02:34:03;;;;;;;10.93;6.35;;;;;;;-1.61;63.51;98562.84;5054804;28;20049;-77
2022/03/30 02:36:30;;;;;;;10.23;5.35;;;;;;;-1.66;64.09;98567.81;5054416;28;20052;-76
2022/03/30 02:38:57;;;;;;;9.38;5.63;;;;;;;-1.64;64.04;98589.22;5054758;28;20049;-78
2022/03/30 02:41:24;;;;;;;9.63;5.55;;;;;;;-1.69;64.50;98576.28;5036813;28;20056;-77
2022/03/30 02:43:51;;;;;;;9.38;5.57;;;;;;;-1.72;64.45;98593.22;5054393;28;20080;-77
2022/03/30 02:46:18;;;;;;;12.50;5.90;;;;;;;-1.78;64.51;98601.59;5054937;28;20413;-78
2022/03/30 02:48:45;;;;;;;10.35;5.55;;;;;;;-1.83;64.77;98594.59;5055487;28;20061;-77
2022/03/30 02:51:12;;;;;;;11.32;5.82;;;;;;;-1.83;65.15;98602.25;5057139;28;20088;-76
2022/03/30 02:53:39;;;;;;;13.85;6.22;;;;;;;-1.84;65.08;98605.66;5057014;28;20174;-76
2022/03/30 02:56:06;;;;;;;10.95;6.55;;;;;;;-1.88;65.20;98602.13;5067703;28;20040;-74
2022/03/30 02:58:33;;;;;;;11.90;6.43;;;;;;;-1.95;65.66;98595.94;5079278;28;20051;-77
2022/03/30 03:01:00;;;;;;;11.50;6.45;;;;;;;-1.90;65.55;98601.19;5056475;28;20052;-76
2022/03/30 03:03:27;;;;;;;11.50;6.55;;;;;;;-1.96;65.32;98621.47;5054677;28;20044;-77
2022/03/30 03:05:54;;;;;;;8.82;5.78;;;;;;;-1.98;66.03;98623.09;5054007;28;20056;-77
2022/03/30 03:08:21;;;;;;;11.15;6.55;;;;;;;-2.07;65.64;98611.72;5054428;28;20514;-77
2022/03/30 03:10:48;;;;;;;11.13;6.00;;;;;;;-2.24;65.34;98602.63;5053840;28;20045;-77
2022/03/30 03:13:16;;;;;;;9.88;5.50;;;;;;;-2.37;65.19;98591.09;5054107;28;20053;-77
2022/03/30 03:15:46;;;;;;;11.00;5.90;;;;;;;-2.20;65.54;98636.88;5053987;28;20064;-77
2022/03/30 03:18:18;;;;;;;11.75;5.75;;;;;;;-2.33;65.01;98622.78;5053750;28;20052;-76
2022/03/30 03:20:47;;;;;;;9.88;5.38;;;;;;;-2.28;65.02;98629.81;5053784;28;20056;-76
2022/03/30 03:23:15;;;;;;;8.40;5.57;;;;;;;-2.30;64.63;98639.13;5053848;28;20107;-76
2022/03/30 03:25:44;;;;;;;8.25;5.22;;;;;;;-2.25;65.09;98649.50;5053816;28;20048;-76
2022/03/30 03:28:12;;;;;;;8.38;5.22;;;;;;;-2.21;64.46;98651.34;5053534;28;20049;-76
2022/03/30 03:30:40;;;;;;;10.40;5.43;;;;;;;-2.25;64.45;98666.56;5053653;28;20052;-76
2022/03/30 03:33:09;;;;;;;8.13;4.75;;;;;;;-2.28;64.66;98668.19;5053616;28;20142;-76
2022/03/30 03:35:37;;;;;;;8.10;4.80;;;;;;;-2.38;64.69;98666.09;5053981;28;20059;-76
2022/03/30 03:38:06;;;;;;;10.80;5.07;;;;;;;-2.43;65.01;98676.97;5053564;28;20057;-76
2022/03/30 03:40:33;;;;;;;9.00;4.80;;;;;;;-2.63;65.18;98622.56;5053378;28;20045;-76
2022/03/30 03:43:01;;;;;;;8.57;5.22;;;;;;;-2.25;65.28;98676.78;5053356;28;20060;-76
2022/03/30 03:45:28;;;;;;;11.88;4.88;;;;;;;-2.15;64.59;98686.50;5053375;28;20053;-75
2022/03/30 03:47:56;;;;;;;6.82;4.80;;;;;;;-2.14;64.32;98691.69;5054437;28;20060;-76
2022/03/30 03:50:23;;;;;;;9.68;5.25;;;;;;;-2.15;64.27;98697.63;5054072;28;20453;-76
2022/03/30 03:52:49;;;;;;;8.20;4.93;;;;;;;-2.12;64.53;98707.97;5052952;28;20052;-77
2022/03/30 03:55:20;;;;;;;8.82;5.45;;;;;;;-2.06;64.64;98702.19;5053109;28;20048;-75
2022/03/30 03:57:48;;;;;;;8.88;5.35;;;;;;;-2.00;64.49;98715.22;5053062;28;20080;-76
2022/03/30 04:00:15;;;;;;;11.05;5.63;;;;;;;-2.01;64.43;98721.13;5053246;28;20076;-75
2022/03/30 04:02:42;;;;;;;8.18;5.45;;;;;;;-2.09;64.62;98727.66;5052720;28;20103;-76
2022/03/30 04:05:13;;;;;;;9.27;5.80;;;;;;;-2.12;65.17;98725.00;5052858;28;20098;-77
2022/03/30 04:07:41;;;;;;;11.32;6.07;;;;;;;-2.18;64.77;98717.09;5052880;28;20131;-76
2022/03/30 04:10:10;;;;;;;10.75;6.72;;;;;;;-2.07;64.45;98720.91;5035111;28;20107;-76
2022/03/30 04:12:38;;;;;;;11.18;7.05;;;;;;;-2.10;64.38;98720.81;5052495;28;20049;-77
2022/03/30 04:15:07;;;;;;;11.85;6.93;;;;;;;-2.19;64.43;98712.81;5052965;28;20122;-81
2022/03/30 04:17:34;;;;;;;15.05;8.00;;;;;;;-2.36;64.23;98687.50;5052246;28;20465;-78
2022/03/30 04:20:01;;;;;;;10.80;7.28;;;;;;;-2.19;64.41;98725.63;5052546;28;20140;-79
2022/03/30 04:22:30;;;;;;;11.40;6.60;;;;;;;-2.09;64.26;98753.25;5052218;28;20503;-78
2022/03/30 04:25:00;;;;;;;9.88;6.07;;;;;;;-2.09;64.25;98737.91;5035278;28;20063;-79
2022/03/30 04:27:28;;;;;;;10.95;5.65;;;;;;;-2.00;64.52;98755.25;5052864;28;20052;-77
2022/03/30 04:29:55;;;;;;;9.48;5.95;;;;;;;-1.89;64.28;98752.28;5049729;28;20049;-79
2022/03/30 04:32:21;;;;;;;11.00;5.80;;;;;;;-1.77;63.61;98745.84;5052183;28;20060;-78
2022/03/30 04:34:48;;;;;;;10.65;6.43;;;;;;;-1.74;63.87;98730.56;5034505;28;20088;-78
2022/03/30 04:37:17;;;;;;;13.23;5.88;;;;;;;-1.76;63.82;98747.59;5052441;28;20075;-78
2022/03/30 04:39:44;;;;;;;12.40;6.78;;;;;;;-1.56;63.38;98751.69;5052224;28;20052;-78
2022/03/30 04:42:12;;;;;;;11.65;5.85;;;;;;;-1.29;63.11;98750.84;5052509;28;20560;-78
2022/03/30 04:44:38;;;;;;;8.95;5.75;;;;;;;-0.86;62.21;98744.53;5055300;28;20107;-78
2022/03/30 04:47:05;;;;;;;10.43;6.40;;;;;;;-0.22;60.73;98750.69;5056529;28;20044;-78
2022/03/30 04:49:32;;;;;;;10.93;5.82;;;;;;;0.18;59.29;98757.81;5055212;28;20052;-78
2022/03/30 04:51:59;;;;;;;11.15;6.00;;;;;;;0.61;58.24;98755.50;5022339;28;20051;-78
2022/03/30 04:54:26;;;;;;;9.02;5.72;;;;;;;0.70;57.85;98762.56;5056448;28;20061;-77
2022/03/30 04:56:54;;;;;;;12.73;6.90;;;;;;;1.07;57.65;98760.88;5056119;28;20072;-76
2022/03/30 04:59:20;;;;;;;13.50;7.45;;;;;;;1.41;56.13;98762.53;5052526;28;20048;-77
2022/03/30 05:01:47;;;;;;;13.80;8.13;;;;;;;1.42;55.68;98748.84;5029573;28;20434;-77
2022/03/30 05:04:14;;;;;;;12.68;7.55;;;;;;;1.15;56.08;98778.25;5029616;28;20419;-77
2022/03/30 05:06:41;;;;;;;14.63;8.00;;;;;;;0.82;56.73;98770.59;5045056;28;20061;-78
2022/03/30 05:09:08;;;;;;;11.55;6.63;;;;;;;0.32;56.96;98740.22;5048132;28;20523;-78
2022/03/30 05:11:35;;;;;;;12.02;7.22;;;;;;;0.02;57.78;98786.44;5045617;28;20057;-79
2022/03/30 05:14:02;;;;;;;13.65;7.63;;;;;;;0.05;57.27;98804.53;5046240;28;20427;-77
2022/03/30 05:16:29;;;;;;;11.52;7.60;;;;;;;0.31;57.19;98788.97;5046630;28;20049;-76
2022/03/30 05:18:56;;;;;;;12.35;7.25;;;;;;;0.32;56.90;98803.53;5046400;28;20112;-79
2022/03/30 05:21:23;;;;;;;15.20;7.63;;;;;;;0.32;56.52;98803.53;5046535;28;20148;-77
2022/03/30 05:23:50;;;;;;;16.63;8.43;;;;;;;1.21;55.07;98800.69;5049368;28;20075;-79
2022/03/30 05:26:17;;;;;;;15.93;7.80;;;;;;;2.27;52.58;98754.00;5052534;28;20079;-79
2022/03/30 05:28:50;;;;;;;13.20;6.90;;;;;;;3.00;49.68;98758.69;5068149;28;20029;-77
2022/03/30 05:31:18;;;;;;;11.75;5.85;;;;;;;3.05;49.38;98776.00;5069541;28;20055;-78
2022/03/30 05:33:45;;;;;;;10.60;5.80;;;;;;;2.40;49.50;98749.94;5047383;28;20055;-76
2022/03/30 05:36:14;;;;;;;10.77;5.50;;;;;;;1.93;48.90;98809.13;5049922;28;20503;-77
2022/03/30 05:38:41;;;;;;;6.80;4.60;;;;;;;1.25;49.82;98801.59;5047063;28;20151;-78
2022/03/30 05:41:08;;;;;;;10.68;5.90;;;;;;;1.00;49.23;98767.59;5055523;28;20059;-78
2022/03/30 05:43:37;;;;;;;8.60;4.50;;;;;;;1.38;48.24;98808.81;5055631;28;20041;-79
2022/03/30 05:46:05;;;;;;;8.00;4.05;;;;;;;1.14;48.14;98791.06;5053838;28;20143;-78
2022/03/30 05:48:32;;;;;;;9.02;5.05;;;;;;;1.52;47.27;98807.38;5030694;28;20136;-76
2022/03/30 05:50:59;;;;;;;6.20;3.60;;;;;;;1.81;46.48;98802.88;5030053;28;20411;-77
2022/03/30 05:53:26;;;;;;;6.72;3.70;;;;;;;2.25;45.49;98817.50;5019206;28;20507;-78
2022/03/30 05:55:55;;;;;;;5.43;3.40;;;;;;;1.87;45.11;98807.28;5035079;28;20057;-79
2022/03/30 05:58:22;;;;;;;4.70;3.10;;;;;;;1.47;45.66;98819.28;5035695;28;20080;-80
2022/03/30 06:00:53;;;;;;;7.05;3.53;;;;;;;1.52;45.81;98821.97;5035284;28;20060;-78
2022/03/30 06:03:20;;;;;;;5.03;3.15;;;;;;;1.69;45.74;98823.22;5035943;28;20049;-81
2022/03/30 06:05:47;;;;;;;4.78;3.33;;;;;;;1.85;45.31;98808.97;5035544;28;20083;-79
2022/03/30 06:08:26;;;;;;;3.33;3.03;;;;;;;2.37;43.52;98819.47;5036039;28;20529;-80
2022/03/30 06:10:53;;;;;;;6.93;2.97;;;;;;;2.55;42.09;98777.69;5034831;28;20054;-79
2022/03/30 06:13:20;;;;;;;3.33;2.65;;;;;;;2.75;41.80;98833.06;5022196;28;20042;-81
2022/03/30 06:15:47;;;;;;;7.40;2.90;;;;;;;2.20;42.20;98791.66;5038395;28;20061;-78
2022/03/30 06:18:14;;;;;;;3.55;2.58;;;;;;;2.44;42.16;98818.75;5036144;28;20099;-79
2022/03/30 06:20:44;;;;;;;5.45;3.00;;;;;;;2.60;41.58;98828.53;5038938;28;20191;-76
2022/03/30 06:23:11;;;;;;;4.82;2.80;;;;;;;2.33;42.42;98838.28;5046232;28;20486;-80
2022/03/30 06:25:39;;;;;;;7.40;2.97;;;;;;;2.15;42.75;98852.56;5048334;28;20041;-79
2022/03/30 06:28:07;;;;;;;7.05;3.28;;;;;;;1.92;43.23;98846.03;5025147;28;20458;-83
2022/03/30 06:30:34;;;;;;;6.65;3.25;;;;;;;1.76;43.68;98845.69;5042009;28;20046;-80
2022/03/30 06:33:01;;;;;;;6.25;3.10;;;;;;;1.60;43.56;98826.44;5043389;28;20046;-79
2022/03/30 06:35:28;;;;;;;3.83;3.00;;;;;;;1.60;43.17;98820.44;5025983;28;20084;-80
2022/03/30 06:37:55;;;;;;;5.68;3.13;;;;;;;1.59;43.11;98859.88;5042973;28;20447;-79
2022/03/30 06:40:21;;;;;;;7.20;3.25;;;;;;;1.48;43.24;98858.75;5016084;28;20045;-80
2022/03/30 06:42:48;;;;;;;3.80;3.00;;;;;;;1.39;43.59;98877.44;5031978;28;20038;-79
2022/03/30 06:45:15;;;;;;;3.15;2.55;;;;;;;1.42;42.96;98873.25;5049529;28;20147;-83
2022/03/30 06:47:42;;;;;;;4.35;2.80;;;;;;;1.63;42.29;98854.84;5038484;28;20139;-79
2022/03/30 06:50:13;;;;;;;5.68;2.70;;;;;;;1.62;41.31;98839.38;5037707;28;20499;-84
2022/03/30 06:52:41;;;;;;;4.43;3.63;;;;;;;1.84;41.43;98836.41;5054510;28;20045;-81
2022/03/30 06:55:08;;;;;;;5.43;3.78;;;;;;;1.95;41.02;98877.88;5054262;28;20064;-81
2022/03/30 06:57:36;;;;;;;5.55;3.40;;;;;;;1.61;41.98;98891.66;5036701;28;20084;-80
2022/03/30 07:00:05;;;;;;;6.85;3.40;;;;;;;1.81;42.11;98902.47;5054195;28;20530;-80
2022/03/30 07:02:32;;;;;;;4.05;3.28;;;;;;;2.24;41.87;98895.69;5054195;28;20049;-78
2022/03/30 07:04:59;;;;;;;4.70;3.67;;;;;;;2.57;41.44;98864.53;5053769;28;20457;-79
2022/03/30 07:10:15;;;;;;;7.50;4.07;;;;;;;2.87;41.52;98897.78;5036367;28;20060;-80
2022/03/30 07:12:53;;;;;;;8.30;4.25;;;;;;;2.53;41.49;98880.78;5054344;28;20053;-78
2022/03/30 07:15:21;;;;;;;9.90;5.30;;;;;;;2.32;42.03;98894.09;5037327;28;20053;-79
2022/03/30 07:17:54;;;;;;;5.68;3.78;;;;;;;3.02;40.95;98892.03;5054376;28;20055;-79
2022/03/30 07:20:23;;;;;;;5.60;3.75;;;;;;;3.58;39.90;98922.25;5055676;28;20620;-83
2022/03/30 07:22:51;;;;;;;4.72;3.67;;;;;;;3.84;39.42;98906.28;5053910;28;20529;-79
2022/03/30 07:25:22;;;;;;;4.75;3.42;;;;;;;3.63;39.53;98910.25;5055836;28;20076;-78
2022/03/30 07:27:51;;;;;;;4.35;3.60;;;;;;;3.40;40.21;98878.03;5054087;28;20075;-79
2022/03/30 07:30:21;;;;;;;4.78;3.58;;;;;;;3.06;40.53;98909.31;5055159;28;20545;-79
2022/03/30 07:32:51;;;;;;;4.25;3.35;;;;;;;3.17;40.68;98925.00;5036475;28;20122;-78
2022/03/30 07:35:21;;;;;;;6.95;3.88;;;;;;;2.95;39.83;98856.66;5053946;28;20083;-80
2022/03/30 07:37:49;;;;;;;;;;;;;;;3.52;40.79;98923.88;5054558;28;20118;-80
2022/03/30 07:40:18;;;;;;;5.03;3.60;;;;;;;3.70;39.71;98911.25;5039249;28;20492;-78
2022/03/30 07:42:47;;;;;;;6.68;3.83;;;;;;;3.50;39.59;98926.41;5058471;28;20073;-79
2022/03/30 07:45:15;;;;;;;6.50;3.53;;;;;;;3.32;39.61;98929.56;5056838;28;20088;-79
2022/03/30 07:47:43;;;;;;;4.20;3.70;;;;;;;3.57;38.93;98917.94;5055558;28;20148;-79
2022/03/30 07:50:12;;;;;;;3.75;3.40;;;;;;;3.89;38.49;98926.19;5053669;28;20067;-79
2022/03/30 07:52:40;;;;;;;6.38;3.47;;;;;;;4.38;37.81;98926.00;5045345;28;20045;-80
2022/03/30 07:55:11;;;;;;;6.47;3.97;;;;;;;4.44;37.54;98920.06;5047279;28;20106;-81
2022/03/30 07:57:42;;;;;;;6.72;3.30;;;;;;;4.27;36.96;98884.50;5047709;28;20072;-79
2022/03/30 08:00:11;;;;;;;4.53;3.45;;;;;;;4.21;37.13;98875.78;5026487;28;20083;-80
2022/03/30 08:02:39;;;;;;;4.55;3.17;;;;;;;4.37;36.49;98924.28;5049044;28;20045;-80
2022/03/30 08:05:12;;;;;;;4.55;3.45;;;;;;;4.55;36.21;98933.97;5073324;28;20053;-80
2022/03/30 08:07:50;;;;;;;4.97;3.10;;;;;;;4.46;35.77;98897.66;5054938;28;20121;-79
2022/03/30 08:10:18;;;;;;;10.55;3.47;;;;;;;4.81;35.36;98936.03;5054389;28;20045;-77
2022/03/30 08:12:46;;;;;;;8.38;3.00;;;;;;;4.93;35.31;98937.03;5054139;28;20059;-78
2022/03/30 08:15:14;;;;;;;5.32;3.58;;;;;;;5.07;34.85;98938.91;5052898;28;20147;-79
2022/03/30 08:17:42;;;;;;;4.97;3.38;;;;;;;5.30;34.20;98915.84;5035020;28;20044;-80
2022/03/30 08:22:25;;;;;;;5.50;3.10;;;;;;;5.57;34.48;98940.22;5052400;28;20510;-78
2022/03/30 08:22:57;;;;;;;4.60;3.20;;;;;;;5.39;33.93;98920.22;5052254;28;20061;-79
2022/03/30 08:25:25;;;;;;;4.85;3.55;;;;;;;5.18;34.55;98926.06;5035385;28;20052;-78
2022/03/30 08:27:52;;;;;;;3.97;3.22;;;;;;;4.96;34.49;98951.72;5052601;28;20063;-81
2022/03/30 08:30:19;;;;;;;4.55;3.40;;;;;;;4.59;35.34;98948.69;5035543;28;20053;-82
2022/03/30 08:32:47;;;;;;;8.43;3.63;;;;;;;4.45;35.78;98938.19;5052849;28;20490;-79
2022/03/30 08:35:15;;;;;;;6.43;3.42;;;;;;;4.61;35.04;98928.88;5053552;28;20445;-80
2022/03/30 08:37:42;;;;;;;6.13;3.50;;;;;;;4.97;35.19;98958.66;5035940;28;20114;-79
2022/03/30 08:40:13;;;;;;;4.78;3.45;;;;;;;4.91;34.67;98953.41;5055904;28;20053;-78
2022/03/30 08:42:40;;;;;;;;;;;;;;;4.77;36.26;98944.59;5054315;28;20048;-80
2022/03/30 08:45:09;;;;;;;5.75;3.80;;;;;;;4.69;35.56;98935.03;5036601;28;19974;-82
2022/03/30 08:47:37;;;;;;;7.05;4.07;;;;;;;4.80;34.62;98949.81;5053654;28;20053;-81
2022/03/30 08:50:05;;;;;;;4.45;3.10;;;;;;;4.82;35.09;98972.28;5052968;28;20454;-80
2022/03/30 08:52:32;;;;;;;6.97;3.35;;;;;;;4.95;34.72;98942.22;5052269;28;20083;-81
2022/03/30 08:54:59;;;;;;;4.53;3.03;;;;;;;4.90;34.82;98931.84;5050939;28;20080;-80
2022/03/30 08:57:27;;;;;;;4.30;3.33;;;;;;;5.09;34.79;98961.34;5034937;28;20148;-79
2022/03/30 09:00:13;;;;;;;5.53;3.22;;;;;;;4.97;34.28;98962.94;5035264;28;20052;-79
2022/03/30 09:02:46;;;;;;;5.25;2.97;;;;;;;4.54;34.89;98973.66;5051576;28;20088;-79
2022/03/30 09:05:21;;;;;;;5.55;3.38;;;;;;;4.02;34.62;98935.00;5032381;28;20053;-78
2022/03/30 09:07:57;;;;;;;6.20;3.30;;;;;;;4.23;35.01;98973.19;5050751;28;20053;-77
2022/03/30 09:10:32;;;;;;;3.75;3.15;;;;;;;4.01;34.80;98976.31;5052213;28;20049;-79
2022/03/30 09:12:59;;;;;;;3.97;3.40;;;;;;;3.85;35.39;98959.69;5052272;28;20152;-78
2022/03/30 09:15:26;;;;;;;6.95;3.45;;;;;;;4.07;35.13;98987.63;5035744;28;20053;-77
2022/03/30 09:17:58;;;;;;;10.93;4.75;;;;;;;4.26;35.13;98978.44;5032359;28;20148;-80
2022/03/30 09:20:39;;;;;;;4.68;3.25;;;;;;;4.18;34.47;98930.06;5032790;28;20088;-79
2022/03/30 09:23:08;;;;;;;5.25;3.10;;;;;;;4.16;34.37;98986.03;5032410;28;20115;-79
2022/03/30 09:25:47;;;;;;;6.03;3.15;;;;;;;4.10;34.05;98982.47;4999521;28;20049;-78
2022/03/30 09:28:19;;;;;;;6.82;2.65;;;;;;;4.14;34.26;98996.34;5014234;28;20079;-79
2022/03/30 09:30:47;;;;;;;5.70;3.30;;;;;;;3.84;33.60;98932.13;5036830;28;20064;-78
2022/03/30 09:33:21;;;;;;;6.20;3.78;;;;;;;4.20;33.63;98951.63;5056229;28;20470;-79
2022/03/30 09:35:49;;;;;;;5.38;3.20;;;;;;;4.34;33.47;98975.94;5056881;28;20057;-83
2022/03/30 09:38:19;;;;;;;4.72;3.20;;;;;;;4.25;33.41;98963.75;5056301;28;20465;-78
2022/03/30 09:40:53;;;;;;;6.25;3.55;;;;;;;4.37;33.31;98988.06;5056688;28;20411;-79
2022/03/30 09:43:24;;;;;;;8.80;3.78;;;;;;;3.86;33.20;98982.97;5042078;28;20473;-77
2022/03/30 09:46:05;;;;;;;7.95;4.50;;;;;;;3.49;33.73;98986.66;5056565;28;20102;-80
2022/03/30 09:48:36;;;;;;;7.15;4.22;;;;;;;3.30;33.60;98962.22;5055963;28;20076;-80
2022/03/30 09:51:05;;;;;;;16.70;7.32;;;;;;;3.28;33.93;98957.03;5055349;28;20083;-78
2022/03/30 09:53:33;;;;;;;5.45;3.50;;;;;;;3.44;33.93;98996.91;5055715;28;20044;-79
2022/03/30 09:56:12;;;;;;;6.00;3.85;;;;;;;3.02;34.35;98958.25;5004789;28;20060;-79
2022/03/30 09:58:41;;;;;;;7.53;3.53;;;;;;;3.11;34.65;99017.78;5037443;28;20053;-78
2022/03/30 10:01:29;;;;;;;4.40;2.70;;;;;;;3.18;34.57;98998.13;5055275;28;20076;-78
2022/03/30 10:04:02;;;;;;;12.73;5.35;;;;;;;3.33;34.33;99006.16;5055230;28;20049;-79
2022/03/30 10:06:34;;;;;;;7.00;3.22;;;;;;;3.34;34.10;98997.56;5055273;28;20421;-79
2022/03/30 10:09:09;;;;;;;5.35;2.50;;;;;;;3.26;34.03;98992.25;5038661;28;20048;-79
2022/03/30 10:11:37;;;;;;;3.97;2.65;;;;;;;2.81;34.19;98958.69;5055261;28;20143;-80
2022/03/30 10:14:05;;;;;;;4.28;2.67;;;;;;;3.28;34.51;98995.75;5054935;28;20126;-79
2022/03/30 10:16:45;;;;;;;3.40;2.25;;;;;;;2.80;34.47;98947.53;5055321;28;20140;-78
2022/03/30 10:19:13;;;;;;;5.85;3.45;;;;;;;2.85;35.28;99004.34;5020873;28;20045;-78
2022/03/30 10:22:13;;;;;;;7.32;2.75;;;;;;;2.52;35.45;98995.09;5037468;28;20455;-78
2022/03/30 10:24:40;;;;;;;3.40;2.47;;;;;;;2.51;35.91;99007.94;5054763;28;20053;-80
2022/03/30 10:27:30;;;;;;;5.55;3.00;;;;;;;2.41;35.83;99006.84;5055328;28;20470;-79
2022/03/30 10:30:04;;;;;;;8.00;3.72;;;;;;;2.23;36.61;98953.19;5039738;28;20061;-79
2022/03/30 10:32:38;;;;;;;6.25;2.85;;;;;;;2.86;35.82;98994.09;5067206;28;20049;-79
2022/03/30 10:35:06;;;;;;;8.68;3.70;;;;;;;3.45;34.92;99005.50;5079094;28;20025;-80
2022/03/30 10:37:38;;;;;;;4.13;2.88;;;;;;;3.84;33.96;98974.31;5072032;28;20064;-78
2022/03/30 10:40:08;;;;;;;5.10;3.50;;;;;;;3.45;34.70;98934.09;5054920;28;20053;-80
2022/03/30 10:42:54;;;;;;;5.20;3.67;;;;;;;3.32;35.08;98941.59;5053834;28;20091;-79
2022/03/30 10:45:49;;;;;;;4.93;3.00;;;;;;;3.23;35.38;98960.38;5054205;28;20103;-82
2022/03/30 10:48:37;;;;;;;5.97;2.70;;;;;;;3.07;35.88;98978.13;5045182;28;20124;-78
2022/03/30 10:51:10;;;;;;;5.28;3.00;;;;;;;3.60;35.31;98985.13;5042261;28;20115;-79
2022/03/30 10:53:39;;;;;;;6.35;3.15;;;;;;;3.63;34.69;98969.66;5045044;28;20068;-80
2022/03/30 10:56:09;;;;;;;9.63;5.20;;;;;;;3.88;34.98;98983.00;5046781;28;20056;-80
2022/03/30 10:58:58;;;;;;;6.03;3.35;;;;;;;3.77;35.11;98982.84;5053503;28;20057;-78
2022/03/30 11:01:28;;;;;;;10.52;4.88;;;;;;;3.58;35.26;98942.03;5035711;28;20051;-80
2022/03/30 11:04:18;;;;;;;14.05;7.15;;;;;;;3.82;35.35;98988.06;5036567;28;20056;-80
2022/03/30 11:06:54;;;;;;;12.90;5.63;;;;;;;4.33;34.65;98984.56;5054113;28;20057;-83
2022/03/30 11:09:26;;;;;;;9.15;3.80;;;;;;;4.03;33.72;98905.72;5036070;28;20057;-79
2022/03/30 11:12:14;;;;;;;7.93;3.10;;;;;;;4.68;33.88;98987.59;5054214;28;20134;-79
2022/03/30 11:14:44;;;;;;;10.43;4.07;;;;;;;4.89;33.70;98976.66;5054367;28;20160;-79
2022/03/30 11:17:35;;;;;;;5.57;2.78;;;;;;;4.44;32.58;98918.31;5003093;28;20128;-79
2022/03/30 11:20:06;;;;;;;8.95;3.85;;;;;;;4.83;33.31;98981.75;5035843;28;20063;-79
2022/03/30 11:22:36;;;;;;;6.20;3.40;;;;;;;5.07;31.98;98985.50;5054059;28;20115;-80
2022/03/30 11:25:19;;;;;;;5.30;2.30;;;;;;;4.78;32.58;98967.03;5047687;28;20060;-82
2022/03/30 11:28:01;;;;;;;3.85;2.10;;;;;;;4.33;32.50;98987.13;5053862;28;20060;-80
2022/03/30 11:30:31;;;;;;;5.80;2.40;;;;;;;4.31;33.10;98992.28;5052727;28;20055;-78
2022/03/30 11:33:06;;;;;;;4.45;2.28;;;;;;;4.41;32.54;98992.41;5040714;28;20056;-79
2022/03/30 11:35:39;;;;;;;5.18;2.60;;;;;;;4.44;31.89;98970.06;5053774;28;20064;-78
2022/03/30 11:38:21;;;;;;;3.53;2.50;;;;;;;4.51;31.42;98981.34;5050186;28;20046;-80
2022/03/30 11:40:51;;;;;;;8.27;2.70;;;;;;;4.47;32.23;98964.94;5021372;28;20053;-79
2022/03/30 11:43:19;;;;;;;6.68;2.47;;;;;;;4.62;32.29;98991.84;5044511;28;20048;-77
2022/03/30 11:46:03;;;;;;;8.43;2.65;;;;;;;4.87;31.54;98983.53;5052930;28;20114;-79
2022/03/30 11:48:37;;;;;;;3.78;2.17;;;;;;;4.75;31.87;98969.56;5044218;28;20044;-76
2022/03/30 11:51:11;;;;;;;5.40;2.60;;;;;;;4.84;31.81;98973.16;5042374;28;20484;-80
2022/03/30 11:53:41;;;;;;;5.07;2.40;;;;;;;5.08;31.30;98995.88;5043378;28;20110;-81